»·PEaware :: N456MJ L52-L88

N456MJ :: L52-L88

FLIGHT INFORMATION

Flight Status: Arrived
Operator: Privately registered:
United States
More flights under this callsign
Pilot: Jone M. (10385)
Aircraft: CESSNA 172 SKYHAWK
(C172)
More flights by this aircraft type
Origin: L52 Oceano Co
United States
Destination: L88 New Cuyama
United States
More flights between these airports :: More routes between these airports
Route:
File this flight plan on PilotEdge
Remarks:
Altitude:
(Current/Filed)
3,500ft
Speed:
(Current/Filed)
110kts
Departed: 06-Jan-19 11:54 AM
Arrived: 06-Jan-19 12:32 PM
Distance/Time
Traveled:
47nm/0:38
Distance/Time
To Go:
Arrived

Flight Plot

Page will automatically refresh every two minutes.


Map Options




Map Legend


Flown Route
Filed Route
Departure Airport
Arrival Airport
Navaid (VOR, NDB)
Fix

Horizontal Profiles

Position Reports

Time Latitude Longitude Heading Altitude Ground
Speed
06-Jan-19 11:44 35.103452 -120.624821 213 17ft 0kts
06-Jan-19 11:45 35.103452 -120.624821 213 17ft 0kts
06-Jan-19 11:46 35.103452 -120.624821 213 17ft 0kts
06-Jan-19 11:47 35.103452 -120.624821 213 17ft 0kts
06-Jan-19 11:48 35.103452 -120.624821 213 17ft 0kts
06-Jan-19 11:49 35.103452 -120.624821 213 17ft 0kts
06-Jan-19 11:50 35.103452 -120.624821 213 17ft 0kts
06-Jan-19 11:51 35.103525 -120.625289 208 17ft 0kts
06-Jan-19 11:52 35.103526 -120.625289 209 17ft 0kts
06-Jan-19 11:53 35.102424 -120.624055 124 17ft 49kts
06-Jan-19 11:54 35.094893 -120.603114 31 899ft 86kts
06-Jan-19 11:55 35.110832 -120.621220 301 842ft 75kts
06-Jan-19 11:56 35.110078 -120.634125 159 444ft 54kts
06-Jan-19 11:57 35.101038 -120.621466 121 17ft 17kts
06-Jan-19 11:58 35.099923 -120.620281 301 17ft 7kts
06-Jan-19 11:59 35.101345 -120.622955 302 17ft 11kts
06-Jan-19 12:00 35.103102 -120.625637 45 17ft 6kts
06-Jan-19 12:01 35.100413 -120.620043 124 173ft 66kts
06-Jan-19 12:02 35.090494 -120.598270 118 1075ft 85kts
06-Jan-19 12:03 35.081950 -120.570071 107 1820ft 88kts
06-Jan-19 12:04 35.076419 -120.539754 100 2215ft 88kts
06-Jan-19 12:05 35.073764 -120.508999 99 2480ft 94kts
06-Jan-19 12:06 35.068742 -120.477637 110 2724ft 93kts
06-Jan-19 12:07 35.060570 -120.445638 110 2831ft 98kts
06-Jan-19 12:08 35.054363 -120.414597 105 3137ft 87kts
06-Jan-19 12:09 35.049418 -120.385117 97 3516ft 108kts
06-Jan-19 12:10 35.046662 -120.357913 102 3494ft 106kts
06-Jan-19 12:11 35.041716 -120.322133 104 3497ft 115kts
06-Jan-19 12:12 35.035693 -120.282638 105 3495ft 117kts
06-Jan-19 12:13 35.029535 -120.243180 105 3495ft 117kts
06-Jan-19 12:14 35.023278 -120.203701 104 3494ft 117kts
06-Jan-19 12:15 35.017017 -120.164395 104 3493ft 116kts
06-Jan-19 12:16 35.010780 -120.125339 104 3491ft 116kts
06-Jan-19 12:17 35.004800 -120.087855 104 3755ft 103kts
06-Jan-19 12:18 34.999484 -120.054636 104 4271ft 96kts
06-Jan-19 12:19 34.994737 -120.024802 106 5034ft 74kts
06-Jan-19 12:20 34.990621 -119.999511 106 5495ft 99kts
06-Jan-19 12:21 34.984506 -119.961783 105 5471ft 115kts
06-Jan-19 12:22 34.978229 -119.922896 105 5470ft 115kts
06-Jan-19 12:23 34.971921 -119.883912 105 5470ft 115kts
06-Jan-19 12:24 34.965627 -119.845106 105 5470ft 115kts
06-Jan-19 12:25 34.959599 -119.806442 97 5466ft 117kts
06-Jan-19 12:26 34.956997 -119.770174 108 4646ft 107kts
06-Jan-19 12:27 34.951140 -119.738025 112 3952ft 90kts
06-Jan-19 12:28 34.944252 -119.710700 116 3083ft 78kts
06-Jan-19 12:29 34.934884 -119.686265 121 2967ft 74kts
06-Jan-19 12:30 34.933821 -119.674439 328 2403ft 64kts
06-Jan-19 12:31 34.940769 -119.687554 297 2206ft 20kts
06-Jan-19 12:32 34.942343 -119.690735 25 2206ft 5kts
06-Jan-19 12:33 34.942405 -119.690701 21 2206ft 0kts
06-Jan-19 12:34 34.942405 -119.690701 21 2206ft 0kts

Navigation Log

Ident Type
Flight plan parsing failed, navigation log unavailable